Terminal Aerodrome Forecast
Issued by NWS

Home | Current Version | Previous Version | Text Only | Print | Product List | Glossary On
Versions: 1 2 3 4 5 6 7 8 9 10 11 12 13 14
089
FTUS44 KLUB 291135
TAFCDS
TAF
KCDS 291135Z 2912/3012 36011KT P6SM SCT150 SCT250
     FM291800 16011KT P6SM SCT080 SCT250 PROB30 3003/3009 VRB20G30KT
      5SM -TSRA BKN050CB=

USA.gov is the U.S. government's official web portal to all federal, state and local government web resources and services.